Time;durP1;ratioP1;P1;durP2;ratioP2;P2;SDS_P1;SDS_P2;PMS_P1;PMS_P2;Temp;Humidity;BMP_temperature;BMP_pressure;BME280_temperature;BME280_humidity;BME280_pressure;Samples;Min_cycle;Max_cycle;Signal;HPM_P1;HPM_P2
2022/09/29 00:01:12;;;;;;;;;;;19.70;67.10;;;;;;4528060;31;20458;-64
2022/09/29 00:03:38;;;;;;;;;;;19.60;67.00;;;;;;4527795;31;20081;-64
2022/09/29 00:06:09;;;;;;;;;;;19.60;67.00;;;;;;4516364;31;20012;-64
2022/09/29 00:08:35;;;;;;;;;;;19.60;67.00;;;;;;4515467;31;20072;-65
2022/09/29 00:11:05;;;;;;;;;;;19.60;67.00;;;;;;4515925;31;20128;-64
2022/09/29 00:13:31;;;;;;;;;;;19.60;67.00;;;;;;4527846;31;20162;-64
2022/09/29 00:15:58;;;;;;;;;;;19.60;67.00;;;;;;4515500;31;20038;-65
2022/09/29 00:18:24;;;;;;;;;;;19.60;67.00;;;;;;4507764;31;20051;-65
2022/09/29 00:20:59;;;;;;;;;;;19.60;67.00;;;;;;4515193;31;20025;-65
2022/09/29 00:23:26;;;;;;;;;;;19.60;67.00;;;;;;4515995;31;20616;-64
2022/09/29 00:26:03;;;;;;;;;;;19.60;67.00;;;;;;4511152;31;20029;-65
2022/09/29 00:28:30;;;;;;;;;;;19.60;66.90;;;;;;4514153;31;20044;-65
2022/09/29 00:30:59;;;;;;;;;;;19.50;66.90;;;;;;4506544;31;20109;-64
2022/09/29 00:33:25;;;;;;;;;;;19.50;66.90;;;;;;4513125;31;20114;-65
2022/09/29 00:35:59;;;;;;;;;;;19.50;66.90;;;;;;4514545;31;20048;-64
2022/09/29 00:38:25;;;;;;;;;;;19.50;66.90;;;;;;4503684;31;20075;-65
2022/09/29 00:40:50;;;;;;;;;;;19.50;66.90;;;;;;4514706;31;20552;-65
2022/09/29 00:43:24;;;;;;;;;;;19.50;66.90;;;;;;4514710;31;20098;-64
2022/09/29 00:45:52;;;;;;;;;;;19.50;66.90;;;;;;4515340;31;20032;-64
2022/09/29 00:48:22;;;;;;;;;;;19.50;66.90;;;;;;4515106;31;20025;-64
2022/09/29 00:50:50;;;;;;;;;;;19.50;66.90;;;;;;4514982;31;20459;-64
2022/09/29 00:53:18;;;;;;;;;;;19.50;66.90;;;;;;4515713;31;20028;-64
2022/09/29 00:55:49;;;;;;;;;;;19.50;66.90;;;;;;4514877;31;20024;-65
2022/09/29 00:58:23;;;;;;;;;;;19.40;66.90;;;;;;4515457;31;20039;-64
2022/09/29 01:00:49;;;;;;;;;;;19.40;66.90;;;;;;4514936;31;20105;-64
2022/09/29 01:03:18;;;;;;;;;;;19.40;66.90;;;;;;4514861;31;20538;-64
2022/09/29 01:05:48;;;;;;;;;;;19.40;66.90;;;;;;4513977;31;20043;-64
2022/09/29 01:08:16;;;;;;;;;;;19.40;66.80;;;;;;4513463;31;20080;-65
2022/09/29 01:10:42;;;;;;;;;;;19.40;66.90;;;;;;4504238;31;20029;-64
2022/09/29 01:13:08;;;;;;;;;;;19.40;66.90;;;;;;4514324;31;20037;-65
2022/09/29 01:15:34;;;;;;;;;;;19.40;66.70;;;;;;4514067;31;20027;-64
2022/09/29 01:18:01;;;;;;;;;;;19.40;66.80;;;;;;4514973;31;20029;-64
2022/09/29 01:20:30;;;;;;;;;;;19.40;66.80;;;;;;4513656;31;20190;-64
2022/09/29 01:23:14;;;;;;;;;;;19.40;66.80;;;;;;4514906;31;20120;-64
2022/09/29 01:25:59;;;;;;;;;;;19.30;66.80;;;;;;4514126;31;20044;-65
2022/09/29 01:28:27;;;;;;;;;;;19.30;66.80;;;;;;4513621;31;20121;-65
2022/09/29 01:30:56;;;;;;;;;;;19.30;66.80;;;;;;4513558;31;20041;-65
2022/09/29 01:33:28;;;;;;;;;;;19.30;66.80;;;;;;4513598;31;20043;-65
2022/09/29 01:35:57;;;;;;;;;;;19.30;66.80;;;;;;4514265;31;20081;-64
2022/09/29 01:38:23;;;;;;;;;;;19.30;66.80;;;;;;4513409;31;20134;-64
2022/09/29 01:41:03;;;;;;;;;;;19.30;66.80;;;;;;4514082;31;20054;-65
2022/09/29 01:43:49;;;;;;;;;;;19.30;66.90;;;;;;4513566;31;20037;-65
2022/09/29 01:46:20;;;;;;;;;;;19.30;66.80;;;;;;4487270;31;20079;-64
2022/09/29 01:48:49;;;;;;;;;;;19.30;66.80;;;;;;4513179;31;20078;-64
2022/09/29 01:51:17;;;;;;;;;;;19.30;66.80;;;;;;4512527;31;20721;-64
2022/09/29 01:53:46;;;;;;;;;;;19.30;66.80;;;;;;4512735;31;20068;-64
2022/09/29 01:56:14;;;;;;;;;;;19.30;66.90;;;;;;4511933;31;20020;-63
2022/09/29 01:59:00;;;;;;;;;;;19.30;66.90;;;;;;4513491;31;20547;-64
2022/09/29 02:01:29;;;;;;;;;;;19.30;66.80;;;;;;4513498;31;20059;-64
2022/09/29 02:04:03;;;;;;;;;;;19.30;66.80;;;;;;4512554;31;20036;-64
2022/09/29 02:06:35;;;;;;;;;;;19.20;66.80;;;;;;4514532;31;20036;-64
2022/09/29 02:09:02;;;;;;;;;;;19.20;66.80;;;;;;4509442;31;20188;-64
2022/09/29 02:11:31;;;;;;;;;;;19.20;66.80;;;;;;4512035;31;20095;-65
2022/09/29 02:13:56;;;;;;;;;;;19.20;66.70;;;;;;4512440;31;20029;-65
2022/09/29 02:16:24;;;;;;;;;;;19.20;66.80;;;;;;4513039;31;20017;-65
2022/09/29 02:18:50;;;;;;;;;;;19.20;66.70;;;;;;4511061;31;20064;-66
2022/09/29 02:21:15;;;;;;;;;;;19.20;66.70;;;;;;4507445;31;20068;-65
2022/09/29 02:23:41;;;;;;;;;;;19.20;66.70;;;;;;4513190;31;20076;-65
2022/09/29 02:26:07;;;;;;;;;;;19.20;66.70;;;;;;4511652;31;20036;-65
2022/09/29 02:28:33;;;;;;;;;;;19.20;66.70;;;;;;4513558;31;20168;-64
2022/09/29 02:31:00;;;;;;;;;;;19.20;66.70;;;;;;4512801;31;20013;-64
2022/09/29 02:33:26;;;;;;;;;;;19.20;66.70;;;;;;4513650;31;20036;-65
2022/09/29 02:36:11;;;;;;;;;;;19.20;67.60;;;;;;4513867;31;20083;-64
2022/09/29 02:38:59;;;;;;;;;;;19.20;66.70;;;;;;4501968;31;20515;-65
2022/09/29 02:41:37;;;;;;;;;;;19.20;66.70;;;;;;4497736;31;20043;-65
2022/09/29 02:44:08;;;;;;;;;;;19.20;66.70;;;;;;4508788;31;20024;-64
2022/09/29 02:46:40;;;;;;;;;;;19.20;66.70;;;;;;4512809;31;20021;-65
2022/09/29 02:49:33;;;;;;;;;;;19.20;66.70;;;;;;4511696;31;20134;-65
2022/09/29 02:52:19;;;;;;;;;;;19.20;66.70;;;;;;4508346;31;20037;-65
2022/09/29 02:54:51;;;;;;;;;;;19.20;66.60;;;;;;4512187;31;20094;-65
2022/09/29 02:57:21;;;;;;;;;;;19.20;66.60;;;;;;4511144;31;20118;-65
2022/09/29 02:59:59;;;;;;;;;;;19.20;66.50;;;;;;4511507;31;20075;-65
2022/09/29 03:02:25;;;;;;;;;;;19.20;66.60;;;;;;4513527;31;20090;-64
2022/09/29 03:04:52;;;;;;;;;;;19.20;66.50;;;;;;4512640;31;20087;-64
2022/09/29 03:07:19;;;;;;;;;;;19.20;66.50;;;;;;4512811;31;20082;-64
2022/09/29 03:09:45;;;;;;;;;;;19.20;66.50;;;;;;4512222;31;20029;-64
2022/09/29 03:12:11;;;;;;;;;;;19.20;66.50;;;;;;4497138;31;20035;-64
2022/09/29 03:14:36;;;;;;;;;;;19.20;66.40;;;;;;4496022;31;20076;-64
2022/09/29 03:17:02;;;;;;;;;;;19.20;66.40;;;;;;4511520;31;20081;-64
2022/09/29 03:19:28;;;;;;;;;;;19.20;66.40;;;;;;4512486;31;20047;-64
2022/09/29 03:21:54;;;;;;;;;;;19.20;66.40;;;;;;4511694;31;20029;-64
2022/09/29 03:24:20;;;;;;;;;;;19.20;66.40;;;;;;4512195;31;20045;-64
2022/09/29 03:26:45;;;;;;;;;;;19.20;66.40;;;;;;4511828;31;20102;-64
2022/09/29 03:29:11;;;;;;;;;;;19.20;66.40;;;;;;4510576;31;20098;-64
2022/09/29 03:31:40;;;;;;;;;;;19.20;66.30;;;;;;4512284;31;20056;-64
2022/09/29 03:34:06;;;;;;;;;;;19.20;66.30;;;;;;4501648;31;20473;-65
2022/09/29 03:36:31;;;;;;;;;;;19.20;66.40;;;;;;4513602;31;20016;-64
2022/09/29 03:38:57;;;;;;;;;;;19.20;66.40;;;;;;4512431;31;20101;-64
2022/09/29 03:41:23;;;;;;;;;;;19.20;66.40;;;;;;4503986;31;20017;-64
2022/09/29 03:43:49;;;;;;;;;;;19.20;66.40;;;;;;4509849;31;20017;-64
2022/09/29 03:46:14;;;;;;;;;;;19.30;66.30;;;;;;4525030;31;20451;-65
2022/09/29 03:48:41;;;;;;;;;;;19.20;66.30;;;;;;4513027;31;20091;-80
2022/09/29 03:51:09;;;;;;;;;;;19.20;66.30;;;;;;4512416;31;20155;-79
2022/09/29 03:53:35;;;;;;;;;;;19.30;66.20;;;;;;4502618;31;20037;-80
2022/09/29 03:56:01;;;;;;;;;;;19.30;66.20;;;;;;4511470;31;20106;-80
2022/09/29 03:58:27;;;;;;;;;;;19.30;66.10;;;;;;4513039;31;20033;-80
2022/09/29 04:00:53;;;;;;;;;;;19.30;66.10;;;;;;4512827;31;20083;-80
2022/09/29 04:03:19;;;;;;;;;;;19.30;66.30;;;;;;4512711;31;20106;-80
2022/09/29 04:05:45;;;;;;;;;;;19.30;66.00;;;;;;4511851;31;20016;-80
2022/09/29 04:08:12;;;;;;;;;;;19.30;65.80;;;;;;4512321;31;20032;-80
2022/09/29 04:10:38;;;;;;;;;;;19.30;65.80;;;;;;4513392;31;20033;-80
2022/09/29 04:13:04;;;;;;;;;;;19.40;65.80;;;;;;4512207;31;20033;-80
2022/09/29 04:15:30;;;;;;;;;;;19.40;65.70;;;;;;4503093;31;20037;-80
2022/09/29 04:17:56;;;;;;;;;;;19.40;65.70;;;;;;4512446;31;20091;-80
2022/09/29 04:20:22;;;;;;;;;;;19.40;65.70;;;;;;4515735;31;20163;-80
2022/09/29 04:22:48;;;;;;;;;;;19.40;65.70;;;;;;4528016;31;20139;-79
2022/09/29 04:25:13;;;;;;;;;;;19.40;65.70;;;;;;4508585;31;20533;-77
2022/09/29 04:27:39;;;;;;;;;;;19.40;65.70;;;;;;4510845;31;20027;-79
2022/09/29 04:30:05;;;;;;;;;;;19.50;65.70;;;;;;4511051;31;20020;-79
2022/09/29 04:32:31;;;;;;;;;;;19.50;65.60;;;;;;4489034;31;20088;-79
2022/09/29 04:34:57;;;;;;;;;;;19.50;65.50;;;;;;4509954;31;20146;-79
2022/09/29 04:37:23;;;;;;;;;;;19.50;65.40;;;;;;4515289;31;20016;-80
2022/09/29 04:39:49;;;;;;;;;;;19.50;65.40;;;;;;4515598;31;20021;-79
2022/09/29 04:42:15;;;;;;;;;;;19.50;65.40;;;;;;4527060;31;20025;-80
2022/09/29 04:44:41;;;;;;;;;;;19.40;65.30;;;;;;4514723;31;20514;-80
2022/09/29 04:47:06;;;;;;;;;;;19.40;65.40;;;;;;4514559;31;20578;-80
2022/09/29 04:49:32;;;;;;;;;;;19.40;65.40;;;;;;4514854;31;20031;-80
2022/09/29 04:51:59;;;;;;;;;;;19.40;66.30;;;;;;4511216;31;20076;-79
2022/09/29 04:54:24;;;;;;;;;;;19.30;65.40;;;;;;4513523;31;20213;-80
2022/09/29 04:56:50;;;;;;;;;;;19.30;65.50;;;;;;4511263;31;20547;-80
2022/09/29 04:59:16;;;;;;;;;;;19.30;65.50;;;;;;4511343;31;20055;-80
2022/09/29 05:01:42;;;;;;;;;;;19.30;65.60;;;;;;4506208;31;20084;-80
2022/09/29 05:04:09;;;;;;;;;;;19.30;65.60;;;;;;4526637;31;20135;-79
2022/09/29 05:06:38;;;;;;;;;;;19.20;65.60;;;;;;4515542;31;20033;-80
2022/09/29 05:09:07;;;;;;;;;;;19.20;65.60;;;;;;4526651;31;20056;-80
2022/09/29 05:11:33;;;;;;;;;;;19.20;65.70;;;;;;4514820;31;20060;-80
2022/09/29 05:13:59;;;;;;;;;;;19.20;65.80;;;;;;4515145;31;20024;-80
2022/09/29 05:16:25;;;;;;;;;;;19.10;65.70;;;;;;4510006;31;20017;-80
2022/09/29 05:18:51;;;;;;;;;;;19.10;65.80;;;;;;4507599;31;20020;-79
2022/09/29 05:21:17;;;;;;;;;;;19.10;65.80;;;;;;4512369;31;20075;-80
2022/09/29 05:23:42;;;;;;;;;;;19.10;65.80;;;;;;4527693;31;20054;-79
2022/09/29 05:26:09;;;;;;;;;;;19.10;65.90;;;;;;4526633;31;20031;-80
2022/09/29 05:28:35;;;;;;;;;;;19.10;65.90;;;;;;4512852;31;20032;-80
2022/09/29 05:31:05;;;;;;;;;;;19.00;65.90;;;;;;4514690;31;20079;-79
2022/09/29 05:33:31;;;;;;;;;;;19.00;65.90;;;;;;4514303;31;20032;-80
2022/09/29 05:35:57;;;;;;;;;;;19.00;66.00;;;;;;4514057;31;20488;-80
2022/09/29 05:38:24;;;;;;;;;;;19.00;66.00;;;;;;4510403;31;20572;-80
2022/09/29 05:40:50;;;;;;;;;;;19.00;66.00;;;;;;4503349;31;20668;-80
2022/09/29 05:43:16;;;;;;;;;;;19.00;66.00;;;;;;4526520;31;20178;-79
2022/09/29 05:45:41;;;;;;;;;;;19.00;66.00;;;;;;4514400;31;20020;-80
2022/09/29 05:48:07;;;;;;;;;;;19.00;66.00;;;;;;4514429;31;20422;-79
2022/09/29 05:50:40;;;;;;;;;;;19.00;66.10;;;;;;4515056;31;20169;-80
2022/09/29 05:53:07;;;;;;;;;;;18.90;66.00;;;;;;4513630;31;20043;-80
2022/09/29 05:55:34;;;;;;;;;;;18.90;66.10;;;;;;4510960;31;20086;-80
2022/09/29 05:58:00;;;;;;;;;;;18.90;66.10;;;;;;4515419;31;20047;-80
2022/09/29 06:00:26;;;;;;;;;;;18.90;66.20;;;;;;4514024;31;20369;-79
2022/09/29 06:02:52;;;;;;;;;;;18.90;66.10;;;;;;4526327;31;20155;-80
2022/09/29 06:05:17;;;;;;;;;;;18.90;66.20;;;;;;4513080;31;20086;-80
2022/09/29 06:07:43;;;;;;;;;;;18.90;66.30;;;;;;4513803;31;20069;-79
2022/09/29 06:10:09;;;;;;;;;;;18.90;66.30;;;;;;4514600;31;20017;-80
2022/09/29 06:12:35;;;;;;;;;;;18.80;66.20;;;;;;4512167;31;20027;-80
2022/09/29 06:15:02;;;;;;;;;;;18.80;66.20;;;;;;4514687;31;20355;-80
2022/09/29 06:17:27;;;;;;;;;;;18.80;66.20;;;;;;4513735;31;20028;-79
2022/09/29 06:19:53;;;;;;;;;;;18.80;66.30;;;;;;4513974;31;20020;-80
2022/09/29 06:22:19;;;;;;;;;;;18.80;66.30;;;;;;4512781;31;20029;-79
2022/09/29 06:24:45;;;;;;;;;;;18.80;66.30;;;;;;4509762;31;20040;-80
2022/09/29 06:27:11;;;;;;;;;;;18.80;66.30;;;;;;4505427;31;20021;-78
2022/09/29 06:29:37;;;;;;;;;;;18.70;66.20;;;;;;4513408;31;20036;-79
2022/09/29 06:32:02;;;;;;;;;;;18.70;66.20;;;;;;4510647;31;20013;-79
2022/09/29 06:34:28;;;;;;;;;;;18.70;66.30;;;;;;4503641;31;20013;-80
2022/09/29 06:37:55;;;;;;;;;;;18.70;66.30;;;;;;4513939;31;20024;-80
2022/09/29 06:39:49;;;;;;;;;;;18.70;66.30;;;;;;4506149;31;20114;-80
2022/09/29 06:42:15;;;;;;;;;;;18.70;67.20;;;;;;4525185;31;20024;-75
2022/09/29 06:44:40;;;;;;;;;;;18.70;66.40;;;;;;4492324;31;20043;-74
2022/09/29 06:47:06;;;;;;;;;;;18.70;66.10;;;;;;4507804;31;20039;-72
2022/09/29 06:49:32;;;;;;;;;;;18.70;65.50;;;;;;4513897;31;20098;-78
2022/09/29 06:51:58;;;;;;;;;;;18.70;64.70;;;;;;4513290;31;20147;-78
2022/09/29 06:54:24;;;;;;;;;;;18.70;64.80;;;;;;4513229;31;20021;-79
2022/09/29 06:56:51;;;;;;;;;;;18.70;65.40;;;;;;4513413;31;20027;-78
2022/09/29 06:59:16;;;;;;;;;;;18.60;65.90;;;;;;4513106;31;20029;-79
2022/09/29 07:01:42;;;;;;;;;;;18.70;66.70;;;;;;4513815;31;20027;-75
2022/09/29 07:04:08;;;;;;;;;;;18.70;67.10;;;;;;4512623;31;20162;-76
2022/09/29 07:06:34;;;;;;;;;;;18.80;67.00;;;;;;4509332;31;20025;-77
2022/09/29 07:09:00;;;;;;;;;;;18.90;66.60;;;;;;4507696;31;20106;-77
2022/09/29 07:11:26;;;;;;;;;;;19.00;66.50;;;;;;4512861;31;20082;-79
2022/09/29 07:13:52;;;;;;;;;;;19.10;66.30;;;;;;4513351;31;20033;-76
2022/09/29 07:16:18;;;;;;;;;;;19.20;66.10;;;;;;4510320;31;20036;-81
2022/09/29 07:18:45;;;;;;;;;;;19.30;66.00;;;;;;4510056;31;20130;-82
2022/09/29 07:21:15;;;;;;;;;;;19.50;65.70;;;;;;4519764;31;20090;-76
2022/09/29 07:23:41;;;;;;;;;;;19.60;65.30;;;;;;4513782;31;20037;-77
2022/09/29 07:26:07;;;;;;;;;;;19.70;65.00;;;;;;4512681;31;20039;-79
2022/09/29 07:28:33;;;;;;;;;;;19.90;64.80;;;;;;4513020;31;20062;-79
2022/09/29 07:30:59;;;;;;;;;;;20.00;64.60;;;;;;4513151;31;20036;-79
2022/09/29 07:33:24;;;;;;;;;;;20.10;64.40;;;;;;4512804;31;20017;-77
2022/09/29 07:35:53;;;;;;;;;;;20.20;64.20;;;;;;4513516;31;20087;-79
2022/09/29 07:38:19;;;;;;;;;;;20.30;64.10;;;;;;4512475;31;20025;-82
2022/09/29 07:40:45;;;;;;;;;;;20.40;64.10;;;;;;4501905;31;20041;-81
2022/09/29 07:43:11;;;;;;;;;;;20.40;63.90;;;;;;4504296;31;20036;-80
2022/09/29 07:45:37;;;;;;;;;;;20.50;63.80;;;;;;4510454;31;20033;-81
2022/09/29 07:48:03;;;;;;;;;;;20.60;63.70;;;;;;4525252;31;20366;-80
2022/09/29 07:50:28;;;;;;;;;;;20.60;63.70;;;;;;4507930;31;20136;-77
2022/09/29 07:52:54;;;;;;;;;;;20.60;63.60;;;;;;4527444;31;20032;-78
2022/09/29 07:55:22;;;;;;;;;;;20.70;63.60;;;;;;4489028;31;35420;-69
2022/09/29 07:57:48;;;;;;;;;;;20.70;63.50;;;;;;4507591;31;20040;-67
2022/09/29 08:00:16;;;;;;;;;;;20.70;63.50;;;;;;4513924;31;20049;-67
2022/09/29 08:02:42;;;;;;;;;;;20.70;63.50;;;;;;4509465;31;20037;-69
2022/09/29 08:05:10;;;;;;;;;;;20.60;63.70;;;;;;4510303;31;20084;-68
2022/09/29 08:07:36;;;;;;;;;;;20.60;63.80;;;;;;4515434;31;20155;-68
2022/09/29 08:10:02;;;;;;;;;;;20.60;64.00;;;;;;4515576;31;20112;-67
2022/09/29 08:12:28;;;;;;;;;;;20.50;64.10;;;;;;4514449;31;20179;-70
2022/09/29 08:14:54;;;;;;;;;;;20.50;64.30;;;;;;4512238;31;20031;-69
2022/09/29 08:17:20;;;;;;;;;;;20.40;64.40;;;;;;4526500;31;20056;-68
2022/09/29 08:19:46;;;;;;;;;;;20.30;64.50;;;;;;4513501;31;20064;-67
2022/09/29 08:22:14;;;;;;;;;;;20.40;64.80;;;;;;4513818;31;20044;-67
2022/09/29 08:24:41;;;;;;;;;;;20.30;64.90;;;;;;4512122;31;20068;-68
2022/09/29 08:27:07;;;;;;;;;;;20.30;64.90;;;;;;4514048;31;20145;-68
2022/09/29 08:29:33;;;;;;;;;;;20.30;65.00;;;;;;4513893;31;20264;-69
2022/09/29 08:31:59;;;;;;;;;;;20.30;65.00;;;;;;4515244;31;20025;-68
2022/09/29 08:34:25;;;;;;;;;;;20.40;65.00;;;;;;4497753;31;20036;-64
2022/09/29 08:36:50;;;;;;;;;;;20.40;65.00;;;;;;4511176;31;20398;-73
2022/09/29 08:39:18;;;;;;;;;;;20.40;64.90;;;;;;4514384;31;20037;-68
2022/09/29 08:41:48;;;;;;;;;;;20.40;64.90;;;;;;4507337;31;20040;-68
2022/09/29 08:44:29;;;;;;;;;;;20.50;64.90;;;;;;4510398;31;20163;-69
2022/09/29 08:47:05;;;;;;;;;;;20.50;64.80;;;;;;4513881;31;20025;-68
2022/09/29 08:49:35;;;;;;;;;;;20.60;65.00;;;;;;4512912;31;20028;-68
2022/09/29 08:52:15;;;;;;;;;;;20.60;64.90;;;;;;4513480;31;20064;-68
2022/09/29 08:54:42;;;;;;;;;;;20.60;64.80;;;;;;4511636;31;20049;-68
2022/09/29 08:57:17;;;;;;;;;;;20.70;64.80;;;;;;4500791;31;28023;-68
2022/09/29 08:59:49;;;;;;;;;;;20.70;64.70;;;;;;4511424;31;20036;-68
2022/09/29 09:02:33;;;;;;;;;;;20.80;64.70;;;;;;4514083;31;20029;-68
2022/09/29 09:04:59;;;;;;;;;;;20.80;64.60;;;;;;4512055;31;20050;-69
2022/09/29 09:07:28;;;;;;;;;;;20.80;64.60;;;;;;4513770;31;20039;-69
2022/09/29 09:10:14;;;;;;;;;;;20.90;64.50;;;;;;4513879;31;20041;-68
2022/09/29 09:12:49;;;;;;;;;;;20.90;64.50;;;;;;4512985;31;20836;-68
2022/09/29 09:15:30;;;;;;;;;;;20.90;64.60;;;;;;4510886;31;20039;-67
2022/09/29 09:18:06;;;;;;;;;;;20.90;64.60;;;;;;4511391;31;20029;-69
2022/09/29 09:20:55;;;;;;;;;;;20.90;64.70;;;;;;4514030;31;20458;-70
2022/09/29 09:23:24;;;;;;;;;;;20.90;64.70;;;;;;4501678;31;20079;-69
2022/09/29 09:25:58;;;;;;;;;;;20.80;64.70;;;;;;4513358;31;20224;-68
2022/09/29 09:28:26;;;;;;;;;;;20.80;64.60;;;;;;4513692;31;20048;-69
2022/09/29 09:30:55;;;;;;;;;;;20.80;64.70;;;;;;4513108;31;20039;-69
2022/09/29 09:33:30;;;;;;;;;;;20.80;65.50;;;;;;4512762;31;20045;-67
2022/09/29 09:35:59;;;;;;;;;;;20.80;64.60;;;;;;4512163;31;20037;-68
2022/09/29 09:38:27;;;;;;;;;;;20.70;64.40;;;;;;4511924;31;20028;-69
2022/09/29 09:40:55;;;;;;;;;;;20.70;64.60;;;;;;4513753;31;20091;-68
2022/09/29 09:43:25;;;;;;;;;;;20.70;64.60;;;;;;4513460;31;20024;-69
2022/09/29 09:45:51;;;;;;;;;;;20.70;64.50;;;;;;4513216;31;20083;-69
2022/09/29 09:48:22;;;;;;;;;;;20.70;64.50;;;;;;4513819;31;20073;-69
2022/09/29 09:50:49;;;;;;;;;;;20.70;64.40;;;;;;4512589;31;20657;-70
2022/09/29 09:53:18;;;;;;;;;;;20.70;64.40;;;;;;4512831;31;20109;-69
2022/09/29 09:55:49;;;;;;;;;;;20.70;64.40;;;;;;4511859;31;20036;-69
2022/09/29 09:58:35;;;;;;;;;;;20.70;64.40;;;;;;4496787;31;26432;-67
2022/09/29 10:01:03;;;;;;;;;;;20.70;64.50;;;;;;4503807;31;20482;-68
2022/09/29 10:03:29;;;;;;;;;;;20.60;64.50;;;;;;4511668;31;20123;-68
2022/09/29 10:05:55;;;;;;;;;;;20.60;64.60;;;;;;4513433;31;20215;-66
2022/09/29 10:08:26;;;;;;;;;;;20.60;64.80;;;;;;4511570;31;20141;-69
2022/09/29 10:10:52;;;;;;;;;;;20.50;64.80;;;;;;4501727;31;20167;-69
2022/09/29 10:13:18;;;;;;;;;;;20.50;65.00;;;;;;4510640;31;20039;-69
2022/09/29 10:16:03;;;;;;;;;;;20.40;65.10;;;;;;4512195;31;20036;-69
2022/09/29 10:18:31;;;;;;;;;;;20.40;65.30;;;;;;4511550;31;20040;-66
2022/09/29 10:20:57;;;;;;;;;;;20.40;65.40;;;;;;4512685;31;20055;-67
2022/09/29 10:23:22;;;;;;;;;;;20.40;65.50;;;;;;4513791;31;20452;-68
2022/09/29 10:25:57;;;;;;;;;;;20.30;65.60;;;;;;4510474;31;20029;-68
2022/09/29 10:28:23;;;;;;;;;;;20.30;65.70;;;;;;4513139;31;20040;-68
2022/09/29 10:30:50;;;;;;;;;;;20.30;65.80;;;;;;4513241;31;20154;-69
2022/09/29 10:33:17;;;;;;;;;;;20.30;65.90;;;;;;4513190;31;20080;-69
2022/09/29 10:35:43;;;;;;;;;;;20.20;66.00;;;;;;4513673;31;20162;-68
2022/09/29 10:38:25;;;;;;;;;;;20.20;66.10;;;;;;4512867;31;20484;-68
2022/09/29 10:41:03;;;;;;;;;;;20.20;66.00;;;;;;4514663;31;20021;-68
2022/09/29 10:43:42;;;;;;;;;;;20.20;66.10;;;;;;4511582;31;20035;-68
2022/09/29 10:46:27;;;;;;;;;;;20.10;65.90;;;;;;4510655;31;20039;-68
2022/09/29 10:49:26;;;;;;;;;;;20.10;66.00;;;;;;4513128;31;20089;-67
2022/09/29 10:51:52;;;;;;;;;;;20.10;66.30;;;;;;4490234;31;20025;-67
2022/09/29 10:54:18;;;;;;;;;;;20.10;66.30;;;;;;4511845;31;20038;-67
2022/09/29 10:56:48;;;;;;;;;;;20.10;66.50;;;;;;4493872;31;24436;-68
2022/09/29 10:59:16;;;;;;;;;;;20.10;66.50;;;;;;4510929;31;20148;-68
2022/09/29 11:01:48;;;;;;;;;;;20.10;66.70;;;;;;4512876;31;20028;-67
2022/09/29 11:04:26;;;;;;;;;;;20.00;66.70;;;;;;4511644;31;20062;-67
2022/09/29 11:06:52;;;;;;;;;;;20.00;66.70;;;;;;4512685;31;20043;-73
2022/09/29 11:09:18;;;;;;;;;;;20.00;66.90;;;;;;4512441;31;20476;-70
2022/09/29 11:11:47;;;;;;;;;;;20.00;67.00;;;;;;4511112;31;20024;-70
2022/09/29 11:14:22;;;;;;;;;;;20.00;67.00;;;;;;4512170;31;20039;-71
2022/09/29 11:16:52;;;;;;;;;;;20.00;66.90;;;;;;4512207;31;20090;-71
2022/09/29 11:19:18;;;;;;;;;;;20.00;67.10;;;;;;4507614;31;20037;-71
2022/09/29 11:22:03;;;;;;;;;;;20.00;67.10;;;;;;4512882;31;20020;-70
2022/09/29 11:24:32;;;;;;;;;;;20.00;67.10;;;;;;4512765;31;20028;-71
2022/09/29 11:26:58;;;;;;;;;;;20.00;67.20;;;;;;4512217;31;20094;-70
2022/09/29 11:29:34;;;;;;;;;;;19.90;67.20;;;;;;4511843;31;20032;-71
2022/09/29 11:32:19;;;;;;;;;;;19.90;67.20;;;;;;4513243;31;20538;-71
2022/09/29 11:35:07;;;;;;;;;;;19.90;67.30;;;;;;4508835;31;20143;-71
2022/09/29 11:37:36;;;;;;;;;;;19.90;67.30;;;;;;4510298;31;20621;-72
2022/09/29 11:40:17;;;;;;;;;;;19.90;67.40;;;;;;4512348;31;20130;-71
2022/09/29 11:42:57;;;;;;;;;;;19.80;68.30;;;;;;4510647;31;20036;-75
2022/09/29 11:45:27;;;;;;;;;;;19.80;67.40;;;;;;4511368;31;20029;-72
2022/09/29 11:47:53;;;;;;;;;;;19.80;67.50;;;;;;4511794;31;20085;-69
2022/09/29 11:50:27;;;;;;;;;;;19.80;67.40;;;;;;4510555;31;20327;-69
2022/09/29 11:53:03;;;;;;;;;;;19.80;67.20;;;;;;4511628;31;20024;-70
2022/09/29 11:55:44;;;;;;;;;;;19.80;67.10;;;;;;4511313;31;20086;-70
2022/09/29 11:58:10;;;;;;;;;;;19.80;66.90;;;;;;4510852;31;20060;-70
2022/09/29 12:03:52;;;;;;;;;;;19.80;67.10;;;;;;4511311;31;20159;-66
2022/09/29 12:06:30;;;;;;;;;;;19.80;67.10;;;;;;4508115;31;20076;-69
2022/09/29 12:09:15;;;;;;;;;;;19.80;67.00;;;;;;4511041;31;20028;-67
2022/09/29 12:11:50;;;;;;;;;;;19.80;66.90;;;;;;4510472;31;20039;-68
2022/09/29 12:14:23;;;;;;;;;;;19.80;66.80;;;;;;4507575;31;20159;-68
2022/09/29 12:16:56;;;;;;;;;;;19.80;66.90;;;;;;4510439;31;20086;-67
2022/09/29 12:19:24;;;;;;;;;;;19.80;66.70;;;;;;4510420;31;20040;-68
2022/09/29 12:21:51;;;;;;;;;;;19.80;66.50;;;;;;4508540;31;20035;-67
2022/09/29 12:24:37;;;;;;;;;;;19.80;66.70;;;;;;4510299;31;20025;-67
2022/09/29 12:27:29;;;;;;;;;;;19.80;66.70;;;;;;4509190;31;20059;-67
2022/09/29 12:29:57;;;;;;;;;;;19.80;66.80;;;;;;4507947;31;20028;-67
2022/09/29 12:32:50;;;;;;;;;;;19.80;66.70;;;;;;4509215;31;20032;-68
2022/09/29 12:35:15;;;;;;;;;;;19.80;66.70;;;;;;4485665;31;20048;-66
2022/09/29 12:38:07;;;;;;;;;;;19.80;66.70;;;;;;4510943;31;20024;-66
2022/09/29 12:40:42;;;;;;;;;;;19.80;66.80;;;;;;4514949;31;20057;-66
2022/09/29 12:43:10;;;;;;;;;;;19.80;66.80;;;;;;4513818;31;20225;-66
2022/09/29 12:45:45;;;;;;;;;;;19.80;66.60;;;;;;4514220;31;20332;-66
2022/09/29 12:48:30;;;;;;;;;;;19.80;66.70;;;;;;4512992;31;20088;-67
2022/09/29 12:51:14;;;;;;;;;;;19.80;66.70;;;;;;4512631;31;20159;-66
2022/09/29 12:53:49;;;;;;;;;;;19.80;66.80;;;;;;4513301;31;20491;-68
2022/09/29 12:56:34;;;;;;;;;;;19.80;66.90;;;;;;4497100;31;20032;-67
2022/09/29 12:59:04;;;;;;;;;;;19.80;66.70;;;;;;4512072;31;20080;-67
2022/09/29 13:01:35;;;;;;;;;;;19.90;66.70;;;;;;4496750;31;36460;-67
2022/09/29 13:04:13;;;;;;;;;;;19.90;66.60;;;;;;4511519;31;20060;-67
2022/09/29 13:06:53;;;;;;;;;;;19.90;66.60;;;;;;4525745;31;20032;-67
2022/09/29 13:09:26;;;;;;;;;;;19.90;66.40;;;;;;4513454;31;20186;-66
2022/09/29 13:12:04;;;;;;;;;;;19.90;66.40;;;;;;4512211;31;20032;-66
2022/09/29 13:14:50;;;;;;;;;;;19.90;66.40;;;;;;4511636;31;20039;-66
2022/09/29 13:17:34;;;;;;;;;;;20.00;66.10;;;;;;4512194;31;20561;-67
2022/09/29 13:20:09;;;;;;;;;;;20.00;66.00;;;;;;4511312;31;20080;-67
2022/09/29 13:22:46;;;;;;;;;;;20.00;66.00;;;;;;4513039;31;20080;-67
2022/09/29 13:25:12;;;;;;;;;;;20.00;66.00;;;;;;4511334;31;20036;-67
2022/09/29 13:27:43;;;;;;;;;;;20.00;66.00;;;;;;4513885;31;20040;-67
2022/09/29 13:30:17;;;;;;;;;;;20.00;66.10;;;;;;4511975;31;20024;-69
2022/09/29 13:32:45;;;;;;;;;;;20.00;65.90;;;;;;4510885;31;20390;-70
2022/09/29 13:35:22;;;;;;;;;;;19.90;65.90;;;;;;4513489;31;20135;-70
2022/09/29 13:37:53;;;;;;;;;;;19.90;66.10;;;;;;4512648;31;20017;-69
2022/09/29 13:40:24;;;;;;;;;;;19.90;66.30;;;;;;4512621;31;20065;-69
2022/09/29 13:42:54;;;;;;;;;;;19.90;66.50;;;;;;4512254;31;20100;-70
2022/09/29 13:45:20;;;;;;;;;;;19.90;66.70;;;;;;4511913;31;20032;-69
2022/09/29 13:47:48;;;;;;;;;;;19.90;66.80;;;;;;4511375;31;20020;-70
2022/09/29 13:50:33;;;;;;;;;;;19.90;66.80;;;;;;4512711;31;20055;-69
2022/09/29 13:53:17;;;;;;;;;;;19.90;66.80;;;;;;4512041;31;20040;-74
2022/09/29 13:56:02;;;;;;;;;;;19.90;67.10;;;;;;4511188;31;20141;-77
2022/09/29 13:58:29;;;;;;;;;;;19.90;68.00;;;;;;4512964;31;20087;-77
2022/09/29 14:00:57;;;;;;;;;;;19.90;67.10;;;;;;4513322;31;20167;-77
2022/09/29 14:03:31;;;;;;;;;;;19.90;67.20;;;;;;4512912;31;20057;-76
2022/09/29 14:06:04;;;;;;;;;;;19.90;67.20;;;;;;4513870;31;20158;-74
2022/09/29 14:08:34;;;;;;;;;;;19.90;67.30;;;;;;4512200;31;20122;-74
2022/09/29 14:11:03;;;;;;;;;;;19.80;67.40;;;;;;4512857;31;20116;-76
2022/09/29 14:13:44;;;;;;;;;;;19.80;67.30;;;;;;4511948;31;20044;-74
2022/09/29 14:16:22;;;;;;;;;;;19.90;67.40;;;;;;4512030;31;20098;-75
2022/09/29 14:19:00;;;;;;;;;;;19.90;67.30;;;;;;4511862;31;20038;-77
2022/09/29 14:21:44;;;;;;;;;;;19.90;67.20;;;;;;4512470;31;20036;-76
2022/09/29 14:24:30;;;;;;;;;;;20.00;67.00;;;;;;4511973;31;20028;-75
2022/09/29 14:27:15;;;;;;;;;;;20.00;66.90;;;;;;4511088;31;20061;-74
2022/09/29 14:29:43;;;;;;;;;;;20.10;66.80;;;;;;4512000;31;20047;-75
2022/09/29 14:32:13;;;;;;;;;;;20.10;66.70;;;;;;4512105;31;20041;-74
2022/09/29 14:34:39;;;;;;;;;;;20.20;66.70;;;;;;4511057;31;20049;-78
2022/09/29 14:37:06;;;;;;;;;;;20.20;66.50;;;;;;4512358;31;20017;-79